Time;durP1;ratioP1;P1;durP2;ratioP2;P2;SDS_P1;SDS_P2;PMS_P1;PMS_P2;Temp;Humidity;BMP_temperature;BMP_pressure;BME280_temperature;BME280_humidity;BME280_pressure;Samples;Min_cycle;Max_cycle;Signal;HPM_P1;HPM_P2
2021/07/07 00:01:47;;;;;;;14.00;7.87;;;;;;;19.46;68.80;100270.34;1755659;80;21150;-69
2021/07/07 00:04:13;;;;;;;22.02;9.25;;;;;;;19.42;68.91;100271.34;1737898;81;21017;-68
2021/07/07 00:06:39;;;;;;;17.17;8.08;;;;;;;19.42;69.00;100274.05;1756417;80;21043;-68
2021/07/07 00:09:05;;;;;;;14.53;8.25;;;;;;;19.42;69.09;100272.69;1758849;80;21008;-68
2021/07/07 00:11:31;;;;;;;15.40;8.30;;;;;;;19.38;69.22;100272.84;1731652;81;20981;-68
2021/07/07 00:13:57;;;;;;;15.60;8.55;;;;;;;19.36;69.36;100274.94;1751443;81;21537;-68
2021/07/07 00:16:23;;;;;;;13.60;7.08;;;;;;;19.34;69.55;100271.66;1783605;80;21058;-68
2021/07/07 00:18:49;;;;;;;13.13;7.40;;;;;;;19.34;69.67;100271.66;1791770;79;20987;-68
2021/07/07 00:21:15;;;;;;;11.45;6.55;;;;;;;19.35;69.75;100276.54;1790425;80;21062;-68
2021/07/07 00:23:41;;;;;;;11.57;7.05;;;;;;;19.36;69.82;100274.94;1789409;80;20987;-68
2021/07/07 00:26:07;;;;;;;13.45;7.87;;;;;;;19.36;69.89;100284.93;1767257;80;21146;-68
2021/07/07 00:28:33;;;;;;;13.08;6.92;;;;;;;19.35;69.94;100292.22;1761273;80;21049;-68
2021/07/07 00:30:59;;;;;;;8.18;5.42;;;;;;;19.37;69.96;100290.12;1760281;80;21530;-68
2021/07/07 00:33:25;;;;;;;10.93;6.65;;;;;;;19.33;69.99;100293.50;1761505;81;21030;-68
2021/07/07 00:35:51;;;;;;;12.25;6.97;;;;;;;19.34;70.04;100293.29;1761087;80;21042;-68
2021/07/07 00:38:17;;;;;;;12.05;6.70;;;;;;;19.32;70.07;100298.08;1761276;81;21050;-67
2021/07/07 00:40:44;;;;;;;15.98;8.38;;;;;;;19.34;70.13;100304.63;1761188;81;20983;-68
2021/07/07 00:43:10;;;;;;;13.40;6.83;;;;;;;19.37;70.19;100303.64;1761106;81;21022;-67
2021/07/07 00:45:36;;;;;;;12.28;6.05;;;;;;;19.43;70.18;100297.34;1761625;80;21000;-68
2021/07/07 00:48:03;;;;;;;12.15;6.55;;;;;;;19.46;70.19;100297.95;1761423;80;21007;-68
2021/07/07 00:50:29;;;;;;;7.70;5.37;;;;;;;19.41;70.22;100298.63;1761451;80;21117;-68
2021/07/07 00:52:56;;;;;;;8.20;5.60;;;;;;;19.36;70.26;100304.69;1760855;81;21062;-68
2021/07/07 00:55:22;;;;;;;9.50;6.15;;;;;;;19.32;70.34;100306.20;1761517;80;21537;-68
2021/07/07 00:57:50;;;;;;;6.72;5.00;;;;;;;19.33;70.36;100302.97;1760507;81;21747;-68
2021/07/07 01:00:21;;;;;;;8.13;5.12;;;;;;;19.29;70.37;100302.60;1761409;81;21021;-68
2021/07/07 01:02:47;;;;;;;10.10;5.55;;;;;;;19.29;70.45;100303.95;1761480;80;21134;-68
2021/07/07 01:05:14;;;;;;;7.92;4.87;;;;;;;19.29;70.49;100316.13;1746085;81;21046;-68
2021/07/07 01:07:41;;;;;;;10.03;4.78;;;;;;;19.30;70.51;100323.72;1761554;81;20987;-68
2021/07/07 01:10:10;;;;;;;7.72;5.55;;;;;;;19.30;70.61;100319.14;1761283;81;21010;-68
2021/07/07 01:12:36;;;;;;;10.50;4.22;;;;;;;19.32;70.63;100325.13;1761425;80;21058;-68
2021/07/07 01:15:08;;;;;;;8.13;4.22;;;;;;;19.33;70.62;100325.44;1761077;78;21491;-68
2021/07/07 01:17:34;;;;;;;5.00;3.80;;;;;;;19.33;70.63;100326.79;1763518;80;21076;-68
2021/07/07 01:20:07;;;;;;;7.40;4.17;;;;;;;19.35;70.61;100326.02;1763463;81;21462;-67
2021/07/07 01:22:33;;;;;;;7.62;4.42;;;;;;;19.34;70.60;100337.91;1763785;81;20998;-68
2021/07/07 01:24:59;;;;;;;4.12;3.45;;;;;;;19.30;70.62;100332.66;1763947;80;21518;-68
2021/07/07 01:27:28;;;;;;;7.92;3.55;;;;;;;19.32;70.63;100335.95;1763335;80;21037;-68
2021/07/07 01:29:54;;;;;;;4.78;3.05;;;;;;;19.35;70.63;100337.39;1764050;80;21150;-67
2021/07/07 01:32:20;;;;;;;6.97;4.10;;;;;;;19.36;70.64;100334.96;1763775;81;20995;-68
2021/07/07 01:34:46;;;;;;;9.40;4.50;;;;;;;19.37;70.66;100342.86;1763554;81;21035;-68
2021/07/07 01:37:12;;;;;;;6.58;3.55;;;;;;;19.34;70.69;100344.67;1763524;81;20984;-68
2021/07/07 01:39:38;;;;;;;10.15;3.77;;;;;;;19.33;70.75;100351.12;1763794;81;21155;-68
2021/07/07 01:42:04;;;;;;;11.25;4.37;;;;;;;19.30;70.79;100348.89;1763816;80;21050;-68
2021/07/07 01:44:31;;;;;;;8.18;3.95;;;;;;;19.28;70.82;100346.91;1763615;80;20962;-68
2021/07/07 01:46:57;;;;;;;5.33;3.90;;;;;;;19.29;70.83;100349.93;1763997;81;21108;-68
2021/07/07 01:49:23;;;;;;;7.85;4.20;;;;;;;19.21;70.86;100350.23;1763517;81;20979;-68
2021/07/07 01:51:49;;;;;;;6.62;3.70;;;;;;;19.17;70.87;100346.88;1763883;80;21141;-68
2021/07/07 01:54:15;;;;;;;6.40;3.42;;;;;;;19.16;70.87;100358.22;1763335;81;21003;-68
2021/07/07 01:56:41;;;;;;;4.85;3.77;;;;;;;19.13;70.89;100355.14;1763921;80;20971;-68
2021/07/07 01:59:07;;;;;;;7.85;3.25;;;;;;;19.12;70.94;100355.66;1763861;81;21440;-68
2021/07/07 02:01:33;;;;;;;7.85;3.70;;;;;;;19.12;71.01;100359.72;1763954;81;21042;-68
2021/07/07 02:03:59;;;;;;;4.85;3.25;;;;;;;19.14;71.04;100357.59;1763938;80;21099;-68
2021/07/07 02:06:25;;;;;;;6.22;3.30;;;;;;;19.17;71.12;100356.34;1763299;81;21018;-68
2021/07/07 02:08:51;;;;;;;6.72;3.12;;;;;;;19.17;71.17;100357.17;1763979;81;21047;-68
2021/07/07 02:11:17;;;;;;;5.08;3.40;;;;;;;19.18;71.21;100357.45;1763556;81;21082;-68
2021/07/07 02:13:43;;;;;;;8.40;3.47;;;;;;;19.17;71.23;100367.98;1763820;81;21919;-68
2021/07/07 02:16:09;;;;;;;5.87;3.90;;;;;;;19.16;71.27;100375.79;1763745;80;21476;-68
2021/07/07 02:18:35;;;;;;;4.70;2.85;;;;;;;19.16;71.31;100379.84;1763325;81;21632;-68
2021/07/07 02:21:01;;;;;;;4.62;2.83;;;;;;;19.18;71.32;100381.78;1763850;81;21636;-68
2021/07/07 02:23:28;;;;;;;5.62;3.22;;;;;;;19.16;71.34;100373.09;1763652;81;21038;-68
2021/07/07 02:25:54;;;;;;;5.92;3.37;;;;;;;19.17;71.40;100374.75;1763824;81;20998;-68
2021/07/07 02:28:24;;;;;;;6.20;4.50;;;;;;;19.19;71.44;100371.28;1763334;81;21540;-68
2021/07/07 02:30:48;;;;;;;8.50;3.50;;;;;;;19.21;71.49;100371.86;1763297;80;21038;-68
2021/07/07 02:33:14;;;;;;;7.33;3.27;;;;;;;19.23;71.51;100375.70;1763350;81;21538;-68
2021/07/07 02:35:41;;;;;;;7.55;3.42;;;;;;;19.21;71.55;100381.88;1763563;81;21007;-68
2021/07/07 02:38:09;;;;;;;7.67;3.25;;;;;;;19.17;71.57;100383.37;1763787;81;21066;-68
2021/07/07 02:40:35;;;;;;;5.47;3.52;;;;;;;19.14;71.56;100390.59;1763282;80;21105;-68
2021/07/07 02:43:02;;;;;;;9.58;3.65;;;;;;;19.12;71.58;100396.73;1763798;81;21498;-68
2021/07/07 02:45:29;;;;;;;10.13;3.17;;;;;;;19.11;71.59;100399.96;1763659;80;21046;-68
2021/07/07 02:47:55;;;;;;;7.72;3.42;;;;;;;19.08;71.61;100395.01;1763968;81;21066;-68
2021/07/07 02:50:21;;;;;;;13.60;3.50;;;;;;;19.04;71.63;100401.91;1763382;81;20971;-68
2021/07/07 02:52:49;;;;;;;5.45;2.90;;;;;;;19.05;71.66;100397.34;1763672;81;21750;-68
2021/07/07 02:55:16;;;;;;;4.20;3.02;;;;;;;19.05;71.71;100391.41;1763616;80;21006;-68
2021/07/07 03:00:48;;;;;;;4.85;2.72;;;;;;;19.06;71.84;100392.23;1763834;81;21085;-68
2021/07/07 03:03:17;;;;;;;9.23;3.00;;;;;;;19.04;71.91;100393.80;1763129;80;20986;-68
2021/07/07 03:05:57;;;;;;;5.05;2.80;;;;;;;19.09;71.99;100399.89;1763717;81;21116;-68
2021/07/07 03:08:32;;;;;;;3.17;2.55;;;;;;;19.11;71.99;100406.72;1763726;80;20991;-68
2021/07/07 03:10:59;;;;;;;4.55;2.92;;;;;;;19.12;72.01;100416.48;1763378;80;20979;-68
2021/07/07 03:13:26;;;;;;;4.80;2.95;;;;;;;19.13;72.02;100425.44;1763951;80;22380;-68
2021/07/07 03:15:52;;;;;;;2.83;2.25;;;;;;;19.16;72.06;100427.16;1762973;80;21152;-68
2021/07/07 03:18:18;;;;;;;7.30;2.62;;;;;;;19.20;72.05;100427.02;1758192;81;21157;-67
2021/07/07 03:20:46;;;;;;;3.45;2.30;;;;;;;19.23;72.07;100423.86;1757850;81;21010;-68
2021/07/07 03:23:13;;;;;;;4.35;2.35;;;;;;;19.28;72.11;100426.69;1764028;81;21550;-68
2021/07/07 03:25:39;;;;;;;8.30;2.92;;;;;;;19.31;72.15;100422.21;1758043;81;20975;-68
2021/07/07 03:28:05;;;;;;;6.15;2.27;;;;;;;19.34;72.16;100420.92;1758166;81;21563;-67
2021/07/07 03:30:33;;;;;;;5.78;2.90;;;;;;;19.36;72.21;100429.10;1758159;81;21275;-68
2021/07/07 03:32:59;;;;;;;7.78;3.33;;;;;;;19.61;72.45;100431.73;1758170;81;21007;-68
2021/07/07 03:35:26;;;;;;;8.00;2.33;;;;;;;20.40;72.75;100423.33;1758055;81;21022;-68
2021/07/07 03:37:52;;;;;;;7.40;2.00;;;;;;;21.14;72.34;100424.53;1758041;81;21086;-68
2021/07/07 03:40:18;;;;;;;2.17;1.77;;;;;;;21.83;71.74;100433.00;1758151;81;21053;-68
2021/07/07 03:42:44;;;;;;;3.08;1.50;;;;;;;22.44;71.01;100418.34;1758153;81;22173;-68
2021/07/07 03:45:13;;;;;;;4.35;1.95;;;;;;;23.04;70.30;100419.31;1757841;81;21026;-68
2021/07/07 03:47:39;;;;;;;2.02;1.50;;;;;;;23.67;69.59;100424.75;1758415;81;20979;-68
2021/07/07 03:50:07;;;;;;;2.70;1.37;;;;;;;24.10;68.61;100419.77;1757479;81;20982;-68
2021/07/07 03:52:34;;;;;;;4.75;1.70;;;;;;;24.49;67.61;100429.95;1758232;80;21039;-69
2021/07/07 03:55:00;;;;;;;3.12;1.75;;;;;;;24.69;66.38;100430.11;1757685;81;21903;-68
2021/07/07 03:57:26;;;;;;;4.42;1.50;;;;;;;25.05;65.61;100433.36;1758087;80;20994;-68
2021/07/07 03:59:52;;;;;;;3.83;1.25;;;;;;;25.24;64.52;100440.56;1758090;80;21030;-69
2021/07/07 04:02:18;;;;;;;1.55;1.20;;;;;;;25.45;63.56;100435.48;1757931;81;21046;-69
2021/07/07 04:04:44;;;;;;;6.95;1.82;;;;;;;25.74;62.71;100441.36;1758234;81;21007;-69
2021/07/07 04:07:10;;;;;;;3.77;1.47;;;;;;;26.03;61.74;100443.91;1758048;80;21970;-69
2021/07/07 04:09:37;;;;;;;2.67;1.20;;;;;;;26.32;60.69;100442.86;1757874;81;20923;-69
2021/07/07 04:12:03;;;;;;;3.27;1.47;;;;;;;26.53;59.84;100439.61;1757519;80;21026;-69
2021/07/07 04:14:29;;;;;;;5.42;1.55;;;;;;;26.62;59.00;100444.25;1758066;81;21026;-69
2021/07/07 04:16:57;;;;;;;4.45;1.15;;;;;;;26.71;58.38;100448.60;1760583;79;21025;-69
2021/07/07 04:19:27;;;;;;;3.70;1.22;;;;;;;26.55;57.30;100462.03;1766562;81;21757;-69
2021/07/07 04:21:53;;;;;;;4.58;1.35;;;;;;;25.23;56.87;100458.84;1766623;80;20978;-68
2021/07/07 04:24:19;;;;;;;3.05;1.10;;;;;;;24.02;57.14;100452.92;1766449;80;20974;-69
2021/07/07 04:26:45;;;;;;;6.60;1.50;;;;;;;23.25;57.52;100451.16;1766808;81;21049;-68
2021/07/07 04:29:12;;;;;;;1.47;1.10;;;;;;;22.67;57.78;100454.37;1766645;81;20993;-68
2021/07/07 04:31:38;;;;;;;2.62;1.20;;;;;;;22.24;58.15;100456.32;1766936;80;21526;-68
2021/07/07 04:34:05;;;;;;;7.28;1.60;;;;;;;22.09;58.48;100459.31;1766652;81;21013;-68
2021/07/07 04:36:32;;;;;;;1.80;1.20;;;;;;;21.99;58.71;100462.64;1766399;80;21057;-68
2021/07/07 04:38:58;;;;;;;6.75;1.77;;;;;;;21.94;58.94;100466.64;1729928;83;21012;-68
2021/07/07 04:41:24;;;;;;;7.25;1.42;;;;;;;21.86;59.17;100462.91;1730129;83;21019;-68
2021/07/07 04:43:50;;;;;;;5.53;1.42;;;;;;;21.74;59.41;100464.30;1730091;83;22011;-68
2021/07/07 04:46:17;;;;;;;6.42;1.05;;;;;;;21.70;59.62;100467.23;1730076;82;20984;-68
2021/07/07 04:48:45;;;;;;;2.33;1.10;;;;;;;21.71;59.81;100478.92;1730162;83;21115;-68
2021/07/07 04:51:12;;;;;;;6.65;1.60;;;;;;;21.63;59.92;100477.93;1729371;83;21631;-68
2021/07/07 04:53:38;;;;;;;3.37;1.32;;;;;;;21.51;60.10;100486.62;1730060;83;21043;-68
2021/07/07 04:56:05;;;;;;;4.45;1.10;;;;;;;21.37;60.31;100489.60;1729835;82;21164;-68
2021/07/07 04:58:31;;;;;;;6.05;1.90;;;;;;;21.30;60.49;100501.64;1730045;83;21143;-68
2021/07/07 05:00:57;;;;;;;6.75;1.77;;;;;;;21.25;60.66;100498.27;1730150;83;21023;-68
2021/07/07 05:03:23;;;;;;;3.50;1.55;;;;;;;21.22;60.86;100493.33;1730111;82;21528;-68
2021/07/07 05:05:49;;;;;;;4.08;1.35;;;;;;;21.18;60.96;100496.21;1730170;83;21470;-68
2021/07/07 05:08:15;;;;;;;3.00;1.32;;;;;;;21.20;61.15;100488.68;1729689;83;21436;-68
2021/07/07 05:10:41;;;;;;;5.78;1.07;;;;;;;21.39;61.26;100486.10;1729858;83;21045;-68
2021/07/07 05:13:07;;;;;;;4.87;1.32;;;;;;;21.51;61.35;100486.62;1729957;83;21065;-69
2021/07/07 05:15:34;;;;;;;5.15;1.55;;;;;;;21.80;61.36;100485.61;1730007;83;21037;-68
2021/07/07 05:18:02;;;;;;;5.75;1.55;;;;;;;22.08;61.33;100488.37;1740920;81;21008;-68
2021/07/07 05:20:28;;;;;;;5.87;1.45;;;;;;;22.59;61.24;100493.36;1747184;82;21514;-68
2021/07/07 05:22:54;;;;;;;7.75;1.45;;;;;;;23.28;61.02;100491.48;1746923;81;21118;-68
2021/07/07 05:25:20;;;;;;;2.72;1.30;;;;;;;23.92;60.69;100489.06;1749764;81;21010;-68
2021/07/07 05:27:46;;;;;;;4.28;1.37;;;;;;;24.26;60.12;100490.55;1755372;81;21055;-69
2021/07/07 05:30:14;;;;;;;4.60;1.22;;;;;;;24.34;59.73;100494.71;1735842;81;21467;-69
2021/07/07 05:32:40;;;;;;;1.95;1.15;;;;;;;24.17;59.46;100500.81;1758255;81;21736;-69
2021/07/07 05:35:07;;;;;;;2.27;1.50;;;;;;;23.92;59.14;100508.13;1761071;81;21176;-69
2021/07/07 05:37:33;;;;;;;7.12;1.65;;;;;;;23.59;59.10;100513.69;1745125;81;21101;-67
2021/07/07 05:39:59;;;;;;;3.00;1.10;;;;;;;23.33;59.06;100517.39;1757429;80;20986;-67
2021/07/07 05:42:26;;;;;;;5.55;1.20;;;;;;;22.97;59.03;100519.31;1763706;80;21802;-67
2021/07/07 05:44:52;;;;;;;2.10;1.60;;;;;;;22.77;59.23;100527.12;1754227;81;22545;-67
2021/07/07 05:47:19;;;;;;;4.45;1.40;;;;;;;22.69;59.44;100525.66;1770331;80;20996;-67
2021/07/07 05:49:45;;;;;;;1.57;1.20;;;;;;;22.74;59.60;100528.98;1758023;81;21045;-67
2021/07/07 05:52:11;;;;;;;1.20;1.07;;;;;;;22.75;59.69;100531.99;1769255;80;21018;-67
2021/07/07 05:54:38;;;;;;;4.67;1.35;;;;;;;22.75;59.85;100533.36;1771372;80;21117;-67
2021/07/07 05:57:05;;;;;;;8.95;1.85;;;;;;;22.76;59.95;100533.66;1771240;80;21569;-67
2021/07/07 05:59:31;;;;;;;2.37;1.50;;;;;;;22.88;60.05;100541.18;1778276;80;21081;-67
2021/07/07 06:01:57;;;;;;;2.55;2.00;;;;;;;22.91;60.10;100537.97;1787248;80;21476;-67
2021/07/07 06:04:23;;;;;;;9.85;1.75;;;;;;;22.87;60.19;100530.00;1775544;80;21054;-67
2021/07/07 06:06:49;;;;;;;2.08;1.50;;;;;;;22.86;60.30;100531.09;1756697;80;21498;-67
2021/07/07 06:09:15;;;;;;;9.93;1.67;;;;;;;23.00;60.33;100524.78;1770329;79;22667;-67
2021/07/07 06:11:42;;;;;;;3.80;1.70;;;;;;;23.27;60.38;100527.92;1764686;80;21004;-66
2021/07/07 06:14:08;;;;;;;3.90;1.27;;;;;;;23.42;60.32;100530.08;1778306;80;21450;-67
2021/07/07 06:16:36;;;;;;;1.98;1.35;;;;;;;23.36;60.30;100530.50;1757993;81;20953;-67
2021/07/07 06:19:02;;;;;;;1.87;1.35;;;;;;;23.27;60.37;100527.09;1757720;81;21513;-67
2021/07/07 06:21:28;;;;;;;1.60;1.25;;;;;;;23.15;60.35;100532.63;1762368;80;21687;-67
2021/07/07 06:23:54;;;;;;;4.80;1.95;;;;;;;23.19;60.48;100536.50;1789252;80;20903;-67
2021/07/07 06:26:20;;;;;;;4.03;1.62;;;;;;;23.15;60.53;100528.55;1788916;79;21055;-67
2021/07/07 06:28:46;;;;;;;2.85;1.50;;;;;;;23.10;60.53;100527.66;1789344;79;21008;-67
2021/07/07 06:31:12;;;;;;;4.03;1.50;;;;;;;23.15;60.55;100523.11;1787738;80;21519;-67
2021/07/07 06:33:38;;;;;;;4.20;1.55;;;;;;;23.32;60.56;100522.57;1789241;80;22635;-67
2021/07/07 06:36:04;;;;;;;4.05;1.90;;;;;;;23.60;60.45;100523.52;1788877;80;21014;-67
2021/07/07 06:38:30;;;;;;;2.08;1.47;;;;;;;23.86;60.29;100524.11;1789046;79;21384;-67
2021/07/07 06:40:56;;;;;;;4.80;1.47;;;;;;;24.28;60.12;100523.80;1789220;79;20891;-67
2021/07/07 06:43:22;;;;;;;11.48;1.72;;;;;;;24.70;59.83;100521.20;1788876;79;21034;-67
2021/07/07 06:45:48;;;;;;;7.45;1.75;;;;;;;25.22;59.57;100522.75;1772002;79;22403;-67
2021/07/07 06:48:14;;;;;;;10.00;1.75;;;;;;;25.44;58.90;100521.79;1770465;79;21006;-67
2021/07/07 06:50:40;;;;;;;5.30;1.57;;;;;;;25.64;58.48;100525.48;1742568;81;21045;-67
2021/07/07 06:53:06;;;;;;;1.20;1.10;;;;;;;25.89;58.05;100519.30;1761893;80;20995;-67
2021/07/07 06:55:32;;;;;;;12.07;2.52;;;;;;;26.01;57.43;100515.77;1755214;80;21045;-68
2021/07/07 06:57:58;;;;;;;10.38;2.08;;;;;;;26.20;57.02;100515.59;1763438;80;22428;-68
2021/07/07 07:00:25;;;;;;;4.37;1.40;;;;;;;26.26;56.32;100510.41;1772084;80;20949;-69
2021/07/07 07:02:51;;;;;;;5.35;1.80;;;;;;;26.23;55.89;100518.33;1777808;80;21034;-69
2021/07/07 07:05:18;;;;;;;4.20;1.05;;;;;;;26.24;55.48;100502.20;1767533;78;20994;-69
2021/07/07 07:07:45;;;;;;;3.77;1.87;;;;;;;26.48;55.15;100503.34;1772350;78;20994;-70
2021/07/07 07:10:12;;;;;;;5.37;1.30;;;;;;;26.79;54.79;100505.53;1776349;79;21764;-69
2021/07/07 07:12:40;;;;;;;2.67;1.25;;;;;;;26.88;54.40;100510.78;1777430;80;21509;-69
2021/07/07 07:15:09;;;;;;;7.30;1.37;;;;;;;26.93;54.05;100518.97;1747922;81;21047;-71
2021/07/07 07:17:36;;;;;;;2.95;2.70;;;;;;;26.87;53.44;100515.97;1777915;80;21499;-71
2021/07/07 07:20:04;;;;;;;3.00;1.30;;;;;;;26.51;53.01;100517.01;1769605;79;21427;-71
2021/07/07 07:22:30;;;;;;;2.20;1.27;;;;;;;26.47;53.00;100513.17;1776861;79;22427;-71
2021/07/07 07:24:56;;;;;;;10.88;1.20;;;;;;;26.30;52.73;100516.98;1764308;80;21048;-71
2021/07/07 07:27:22;;;;;;;3.75;0.90;;;;;;;26.28;52.83;100516.41;1747112;81;21022;-71
2021/07/07 07:29:48;;;;;;;2.27;1.20;;;;;;;26.36;52.60;100511.50;1743864;81;21061;-71
2021/07/07 07:32:14;;;;;;;2.45;0.90;;;;;;;26.39;52.32;100510.98;1777956;80;21448;-71
2021/07/07 07:34:41;;;;;;;1.82;1.20;;;;;;;26.62;52.32;100512.65;1778155;80;21964;-71
2021/07/07 07:37:13;;;;;;;1.60;1.10;;;;;;;26.84;51.91;100517.89;1753704;81;20972;-71
2021/07/07 07:39:48;;;;;;;6.03;1.10;;;;;;;27.15;51.73;100509.09;1773792;80;21368;-71
2021/07/07 07:42:15;;;;;;;4.97;1.10;;;;;;;27.13;51.21;100513.46;1745655;81;21013;-71
2021/07/07 07:44:41;;;;;;;2.92;1.00;;;;;;;26.92;51.18;100511.84;1774830;80;20903;-71
2021/07/07 07:47:08;;;;;;;7.53;1.50;;;;;;;26.82;50.95;100521.43;1767988;80;21830;-71
2021/07/07 07:49:34;;;;;;;3.72;0.98;;;;;;;26.51;50.67;100519.74;1771624;79;21514;-70
2021/07/07 07:52:00;;;;;;;2.83;0.90;;;;;;;26.48;50.77;100527.95;1767550;80;20977;-71
2021/07/07 07:54:27;;;;;;;1.90;1.25;;;;;;;26.81;50.74;100529.36;1776188;80;21030;-71
2021/07/07 07:56:54;;;;;;;4.80;1.22;;;;;;;27.16;50.54;100529.91;1769866;80;21440;-70
2021/07/07 07:59:20;;;;;;;1.65;1.12;;;;;;;27.28;49.94;100531.25;1773697;80;21861;-70
2021/07/07 08:01:47;;;;;;;2.35;1.22;;;;;;;27.31;49.61;100524.39;1764828;80;21516;-71
2021/07/07 08:04:13;;;;;;;5.78;1.47;;;;;;;27.29;49.17;100534.27;1755397;81;21856;-71
2021/07/07 08:06:39;;;;;;;1.30;0.80;;;;;;;27.36;48.91;100534.52;1738904;81;21678;-71
2021/07/07 08:09:05;;;;;;;10.00;1.37;;;;;;;27.55;48.89;100538.36;1760791;80;20901;-71
2021/07/07 08:11:31;;;;;;;2.60;0.82;;;;;;;27.70;48.72;100541.02;1773976;80;21942;-71
2021/07/07 08:13:57;;;;;;;7.17;2.35;;;;;;;27.79;48.25;100546.22;1754663;80;21771;-71
2021/07/07 08:16:23;;;;;;;2.17;1.12;;;;;;;28.01;48.06;100542.54;1773668;78;21057;-71
2021/07/07 08:18:49;;;;;;;4.03;1.17;;;;;;;28.07;47.77;100542.84;1791170;78;21001;-71
2021/07/07 08:21:17;;;;;;;4.25;1.20;;;;;;;28.12;47.78;100535.11;1778845;79;21068;-71
2021/07/07 08:23:43;;;;;;;2.90;1.07;;;;;;;28.02;47.80;100542.81;1779408;79;21808;-71
2021/07/07 08:26:09;;;;;;;2.77;1.00;;;;;;;27.95;47.66;100543.67;1773870;79;21087;-71
2021/07/07 08:28:37;;;;;;;9.30;1.70;;;;;;;27.36;47.51;100546.30;1760867;79;20982;-70
2021/07/07 08:31:03;;;;;;;4.30;1.20;;;;;;;26.84;47.79;100548.55;1779340;79;20986;-71
2021/07/07 08:33:29;;;;;;;4.25;1.50;;;;;;;26.74;48.07;100550.70;1777760;79;21018;-70
2021/07/07 08:35:55;;;;;;;3.55;1.12;;;;;;;26.67;48.27;100547.41;1777032;79;21818;-71
2021/07/07 08:38:21;;;;;;;4.97;1.35;;;;;;;26.70;48.38;100551.80;1783349;79;21529;-71
2021/07/07 08:40:47;;;;;;;5.65;1.35;;;;;;;26.49;48.52;100543.83;1778426;79;21371;-71
2021/07/07 08:43:13;;;;;;;1.55;1.30;;;;;;;26.35;48.73;100538.60;1732801;82;21102;-71
2021/07/07 08:45:39;;;;;;;5.25;1.12;;;;;;;26.39;48.92;100545.18;1737861;80;21012;-72
2021/07/07 08:48:05;;;;;;;2.27;1.10;;;;;;;26.44;49.05;100550.64;1738911;81;22481;-70
2021/07/07 08:50:34;;;;;;;1.22;1.12;;;;;;;26.75;49.09;100546.30;1747046;81;21390;-71
2021/07/07 08:53:02;;;;;;;5.10;1.60;;;;;;;26.93;49.02;100547.71;1744106;81;21082;-70
2021/07/07 08:55:29;;;;;;;2.98;1.70;;;;;;;27.07;48.94;100544.69;1786848;78;21061;-71
2021/07/07 08:57:55;;;;;;;7.60;1.37;;;;;;;26.94;48.85;100545.80;1783631;78;21014;-71
2021/07/07 09:00:32;;;;;;;2.05;1.10;;;;;;;26.82;48.74;100546.06;1747293;80;22027;-70
2021/07/07 09:03:05;;;;;;;3.33;1.10;;;;;;;26.63;48.65;100545.77;1745085;81;21036;-71
2021/07/07 09:05:33;;;;;;;6.17;1.30;;;;;;;26.31;48.78;100551.45;1776425;79;21021;-71
2021/07/07 09:08:06;;;;;;;8.08;1.47;;;;;;;26.17;48.82;100554.93;1774136;79;21126;-70
2021/07/07 09:10:32;;;;;;;8.23;1.00;;;;;;;25.95;48.87;100563.32;1779914;79;20916;-71
2021/07/07 09:13:12;;;;;;;7.87;1.40;;;;;;;25.84;48.98;100568.45;1789740;79;21801;-70
2021/07/07 09:15:38;;;;;;;;;;;;;;;25.74;49.07;100579.34;1778358;79;21000;-70
2021/07/07 09:18:04;;;;;;;4.25;1.15;;;;;;;25.66;49.25;100573.83;1787082;79;20162;-71
2021/07/07 09:20:39;;;;;;;17.10;9.48;;;;;;;25.64;49.29;100573.83;1767218;80;21027;-70
2021/07/07 09:23:22;;;;;;;8.38;4.75;;;;;;;25.66;49.33;100575.73;1761977;80;21057;-70
2021/07/07 09:25:58;;;;;;;13.78;8.95;;;;;;;25.68;49.36;100583.14;1776020;80;21782;-71
2021/07/07 09:28:38;;;;;;;21.20;9.43;;;;;;;25.71;49.43;100586.70;1768983;80;21026;-71
2021/07/07 09:31:07;;;;;;;;;;;;;;;25.86;49.50;100586.80;1777749;78;21133;-70
2021/07/07 09:33:44;;;;;;;3.02;1.70;;;;;;;26.02;49.49;100591.23;1761918;80;20205;-70
2021/07/07 09:36:23;;;;;;;1.80;1.32;;;;;;;26.19;49.40;100594.61;1775379;80;21601;-71
2021/07/07 09:38:50;;;;;;;2.33;1.70;;;;;;;26.29;49.31;100596.01;1765722;79;22532;-71
2021/07/07 09:41:16;;;;;;;16.85;3.37;;;;;;;26.36;49.28;100604.50;1780699;80;21030;-70
2021/07/07 09:43:50;;;;;;;6.10;1.70;;;;;;;26.44;49.32;100602.62;1786690;79;21117;-71
2021/07/07 09:46:18;;;;;;;5.53;2.10;;;;;;;26.29;49.24;100608.31;1763021;80;21480;-70
2021/07/07 09:48:46;;;;;;;2.77;1.40;;;;;;;26.08;49.45;100609.30;1772300;80;21093;-71
2021/07/07 09:51:12;;;;;;;1.30;0.90;;;;;;;26.14;49.56;100617.78;1780274;80;22639;-71
2021/07/07 09:53:38;;;;;;;5.00;1.95;;;;;;;26.24;49.64;100626.09;1762489;80;20912;-71
2021/07/07 09:56:05;;;;;;;4.95;1.98;;;;;;;26.10;49.73;100630.91;1772034;80;21089;-71
2021/07/07 09:58:31;;;;;;;6.53;1.60;;;;;;;25.85;49.93;100628.88;1777319;78;21037;-70
2021/07/07 10:00:57;;;;;;;4.40;1.40;;;;;;;25.28;50.33;100632.27;1771520;78;21073;-70
2021/07/07 10:03:23;;;;;;;10.75;1.80;;;;;;;24.59;51.12;100640.04;1759840;79;21776;-70
2021/07/07 10:05:49;;;;;;;10.63;2.20;;;;;;;24.02;51.89;100650.47;1783022;80;21507;-70
2021/07/07 10:08:15;;;;;;;12.55;2.08;;;;;;;23.57;52.63;100658.28;1781635;79;21466;-70
2021/07/07 10:10:41;;;;;;;6.70;2.27;;;;;;;23.17;53.91;100659.77;1773095;80;20986;-70
2021/07/07 10:13:10;;;;;;;4.53;2.10;;;;;;;22.86;54.66;100645.33;1775052;79;21074;-70
2021/07/07 10:15:37;;;;;;;8.50;1.87;;;;;;;22.60;55.39;100660.83;1773609;79;23335;-70
2021/07/07 10:18:04;;;;;;;4.40;1.55;;;;;;;22.39;56.18;100666.41;1751221;80;22175;-70
2021/07/07 10:20:30;;;;;;;6.78;2.10;;;;;;;22.22;56.79;100661.42;1746173;81;21147;-70
2021/07/07 10:22:56;;;;;;;7.20;2.58;;;;;;;22.08;57.29;100664.94;1758692;80;21099;-70
2021/07/07 10:25:27;;;;;;;9.60;1.50;;;;;;;21.97;57.65;100678.00;1768689;80;21102;-70
2021/07/07 10:27:55;;;;;;;2.98;2.00;;;;;;;21.93;58.01;100683.61;1771626;80;21346;-70
2021/07/07 10:30:22;;;;;;;5.03;2.58;;;;;;;21.91;58.23;100680.31;1760483;80;20971;-70
2021/07/07 10:33:08;;;;;;;5.60;2.15;;;;;;;21.85;58.58;100673.06;1752351;81;21003;-71
2021/07/07 10:35:34;;;;;;;6.85;2.30;;;;;;;21.81;58.86;100673.27;1786575;80;21035;-70
2021/07/07 10:38:04;;;;;;;5.00;2.12;;;;;;;21.77;59.14;100677.52;1774365;79;21003;-70
2021/07/07 10:40:30;;;;;;;2.92;2.00;;;;;;;21.74;59.38;100684.78;1772380;80;21495;-71
2021/07/07 10:42:57;;;;;;;5.53;2.22;;;;;;;21.68;59.68;100677.55;1786786;80;21473;-70
2021/07/07 10:45:42;;;;;;;4.47;2.02;;;;;;;21.67;59.97;100680.00;1788186;79;21014;-70
2021/07/07 10:48:31;;;;;;;9.38;2.62;;;;;;;21.69;60.12;100685.47;1789234;80;21529;-70
2021/07/07 10:51:00;;;;;;;3.65;2.80;;;;;;;21.63;60.47;100684.23;1784557;80;21022;-70
2021/07/07 10:53:34;;;;;;;8.83;2.55;;;;;;;21.59;60.83;100695.27;1786945;80;21155;-70
2021/07/07 10:56:00;;;;;;;8.23;2.20;;;;;;;21.63;61.11;100694.57;1785084;80;21476;-70
2021/07/07 10:58:32;;;;;;;14.50;3.17;;;;;;;21.71;61.37;100704.26;1759232;79;20989;-71
2021/07/07 11:00:59;;;;;;;6.80;3.83;;;;;;;21.80;61.59;100706.38;1758766;81;21491;-71
2021/07/07 11:03:33;;;;;;;5.00;3.27;;;;;;;21.79;61.80;100702.53;1758323;81;21480;-71
2021/07/07 11:06:03;;;;;;;7.40;2.92;;;;;;;21.74;61.97;100710.57;1758449;81;21158;-71
2021/07/07 11:08:29;;;;;;;5.17;2.60;;;;;;;21.67;62.03;100707.14;1742793;81;21007;-70
2021/07/07 11:10:58;;;;;;;14.13;3.20;;;;;;;21.49;62.24;100712.66;1739218;81;20990;-70
2021/07/07 11:13:24;;;;;;;8.90;2.20;;;;;;;21.27;62.41;100715.09;1758638;81;20992;-70
2021/07/07 11:15:50;;;;;;;10.58;2.62;;;;;;;21.10;62.73;100723.56;1757827;81;21010;-71
2021/07/07 11:18:22;;;;;;;6.85;2.20;;;;;;;21.07;62.83;100721.31;1758389;80;21383;-71
2021/07/07 11:21:04;;;;;;;8.08;2.33;;;;;;;21.02;62.99;100723.35;1757983;81;21475;-71
2021/07/07 11:23:30;;;;;;;5.03;1.90;;;;;;;20.90;63.13;100727.88;1758365;81;21054;-71
2021/07/07 11:25:56;;;;;;;3.35;1.42;;;;;;;20.77;63.29;100728.06;1764556;80;21005;-71
2021/07/07 11:28:22;;;;;;;3.25;1.47;;;;;;;20.66;63.46;100730.19;1758182;81;21486;-70